Terminal Aerodrome Forecast
Issued by NWS Topeka, KS

Home | Current Version | Previous Version | Text Only | Print | Product List | Glossary Off
Versions: 1 2 3 4 5 6 7 8 9 10 11 12 13 14 15 16 17

000
FTUS43 KTOP 301100
TAFTOP
TAF
KTOP 301134Z 3012/3112 34012KT P6SM SCT008 OVC010
      TEMPO 3012/3015 BKN008 OVC011
     FM301500 34012G17KT P6SM SCT008 OVC013
     FM302100 36009KT P6SM BKN025 OVC040
     FM310600 01004KT P6SM SCT008=

USA.gov is the U.S. government's official web portal to all federal, state and local government web resources and services.